sensor_id;sensor_type;location;lat;lon;timestamp;pressure;altitude;pressure_sealevel;temperature;humidity
78198;BME280;67472;51.554;7.812;2023-11-21T00:02:31;100187.50;;;9.70;100.00
78198;BME280;67472;51.554;7.812;2023-11-21T00:05:17;100196.69;;;9.76;100.00
78198;BME280;67472;51.554;7.812;2023-11-21T00:08:04;100193.94;;;9.87;100.00
78198;BME280;67472;51.554;7.812;2023-11-21T00:10:50;100200.16;;;9.76;100.00
78198;BME280;67472;51.554;7.812;2023-11-21T00:13:37;100202.09;;;9.74;100.00
78198;BME280;67472;51.554;7.812;2023-11-21T00:16:23;100204.75;;;9.74;100.00
78198;BME280;67472;51.554;7.812;2023-11-21T00:19:11;100213.59;;;9.73;100.00
78198;BME280;67472;51.554;7.812;2023-11-21T00:21:58;100202.94;;;9.75;100.00
78198;BME280;67472;51.554;7.812;2023-11-21T00:24:44;100211.41;;;9.78;100.00
78198;BME280;67472;51.554;7.812;2023-11-21T00:27:30;100214.44;;;9.43;100.00
78198;BME280;67472;51.554;7.812;2023-11-21T00:30:17;100221.72;;;9.09;100.00
78198;BME280;67472;51.554;7.812;2023-11-21T00:33:05;100232.66;;;9.26;100.00
78198;BME280;67472;51.554;7.812;2023-11-21T00:35:52;100238.41;;;9.40;100.00
78198;BME280;67472;51.554;7.812;2023-11-21T00:38:38;100243.50;;;9.32;100.00
78198;BME280;67472;51.554;7.812;2023-11-21T00:41:25;100246.13;;;9.53;100.00
78198;BME280;67472;51.554;7.812;2023-11-21T00:44:12;100248.13;;;9.60;100.00
78198;BME280;67472;51.554;7.812;2023-11-21T00:46:58;100249.13;;;9.69;100.00
78198;BME280;67472;51.554;7.812;2023-11-21T00:49:44;100237.88;;;9.67;100.00
78198;BME280;67472;51.554;7.812;2023-11-21T00:52:31;100230.69;;;9.69;100.00
78198;BME280;67472;51.554;7.812;2023-11-21T00:55:17;100235.38;;;9.65;100.00
78198;BME280;67472;51.554;7.812;2023-11-21T00:58:03;100245.88;;;9.56;100.00
78198;BME280;67472;51.554;7.812;2023-11-21T01:00:51;100247.97;;;9.62;100.00
78198;BME280;67472;51.554;7.812;2023-11-21T01:03:37;100251.06;;;9.67;100.00
78198;BME280;67472;51.554;7.812;2023-11-21T01:06:24;100255.22;;;9.70;100.00
78198;BME280;67472;51.554;7.812;2023-11-21T01:09:11;100255.16;;;9.81;100.00
78198;BME280;67472;51.554;7.812;2023-11-21T01:11:57;100252.53;;;9.81;100.00
78198;BME280;67472;51.554;7.812;2023-11-21T01:14:44;100250.41;;;9.75;100.00
78198;BME280;67472;51.554;7.812;2023-11-21T01:17:31;100252.53;;;9.81;100.00
78198;BME280;67472;51.554;7.812;2023-11-21T01:20:18;100257.81;;;9.81;100.00
78198;BME280;67472;51.554;7.812;2023-11-21T01:23:05;100258.75;;;9.80;100.00
78198;BME280;67472;51.554;7.812;2023-11-21T01:25:54;100260.88;;;9.86;100.00
78198;BME280;67472;51.554;7.812;2023-11-21T01:28:40;100262.81;;;9.84;100.00
78198;BME280;67472;51.554;7.812;2023-11-21T01:31:26;100256.44;;;9.86;100.00
78198;BME280;67472;51.554;7.812;2023-11-21T01:34:14;100261.28;;;9.91;100.00
78198;BME280;67472;51.554;7.812;2023-11-21T01:37:00;100261.19;;;9.92;100.00
78198;BME280;67472;51.554;7.812;2023-11-21T01:39:50;100259.75;;;9.88;100.00
78198;BME280;67472;51.554;7.812;2023-11-21T01:42:37;100263.66;;;9.94;100.00
78198;BME280;67472;51.554;7.812;2023-11-21T01:45:24;100255.44;;;9.78;100.00
78198;BME280;67472;51.554;7.812;2023-11-21T01:48:11;100255.00;;;9.82;100.00
78198;BME280;67472;51.554;7.812;2023-11-21T01:50:59;100256.97;;;9.90;100.00
78198;BME280;67472;51.554;7.812;2023-11-21T01:53:45;100257.25;;;9.87;100.00
78198;BME280;67472;51.554;7.812;2023-11-21T01:56:32;100256.81;;;9.82;100.00
78198;BME280;67472;51.554;7.812;2023-11-21T01:59:21;100251.53;;;9.82;100.00
78198;BME280;67472;51.554;7.812;2023-11-21T02:02:07;100255.81;;;9.73;100.00
78198;BME280;67472;51.554;7.812;2023-11-21T02:04:56;100261.91;;;9.74;100.00
78198;BME280;67472;51.554;7.812;2023-11-21T02:07:42;100259.69;;;9.69;100.00
78198;BME280;67472;51.554;7.812;2023-11-21T02:10:28;100262.38;;;9.58;100.00
78198;BME280;67472;51.554;7.812;2023-11-21T02:13:17;100258.03;;;9.47;100.00
78198;BME280;67472;51.554;7.812;2023-11-21T02:16:05;100270.38;;;9.47;100.00
78198;BME280;67472;51.554;7.812;2023-11-21T02:18:52;100277.94;;;9.40;100.00
78198;BME280;67472;51.554;7.812;2023-11-21T02:21:39;100279.00;;;9.49;100.00
78198;BME280;67472;51.554;7.812;2023-11-21T02:24:26;100285.09;;;9.49;100.00
78198;BME280;67472;51.554;7.812;2023-11-21T02:27:14;100287.34;;;9.33;100.00
78198;BME280;67472;51.554;7.812;2023-11-21T02:30:06;100291.94;;;9.31;100.00
78198;BME280;67472;51.554;7.812;2023-11-21T02:32:57;100297.47;;;9.28;100.00
78198;BME280;67472;51.554;7.812;2023-11-21T02:35:44;100305.38;;;9.28;100.00
78198;BME280;67472;51.554;7.812;2023-11-21T02:38:30;100310.94;;;9.35;100.00
78198;BME280;67472;51.554;7.812;2023-11-21T02:41:17;100312.19;;;9.31;100.00
78198;BME280;67472;51.554;7.812;2023-11-21T02:44:04;100312.38;;;9.39;100.00
78198;BME280;67472;51.554;7.812;2023-11-21T02:46:51;100312.75;;;9.34;100.00
78198;BME280;67472;51.554;7.812;2023-11-21T02:49:37;100316.78;;;9.38;100.00
78198;BME280;67472;51.554;7.812;2023-11-21T02:52:23;100312.81;;;9.44;100.00
78198;BME280;67472;51.554;7.812;2023-11-21T02:55:09;100316.94;;;9.37;100.00
78198;BME280;67472;51.554;7.812;2023-11-21T02:57:57;100302.53;;;9.41;100.00
78198;BME280;67472;51.554;7.812;2023-11-21T03:00:43;100307.16;;;9.28;100.00
78198;BME280;67472;51.554;7.812;2023-11-21T03:03:29;100303.75;;;9.16;100.00
78198;BME280;67472;51.554;7.812;2023-11-21T03:06:15;100314.81;;;9.31;100.00
78198;BME280;67472;51.554;7.812;2023-11-21T03:09:01;100317.13;;;9.24;100.00
78198;BME280;67472;51.554;7.812;2023-11-21T03:11:47;100324.56;;;9.19;100.00
78198;BME280;67472;51.554;7.812;2023-11-21T03:14:35;100328.34;;;9.26;100.00
78198;BME280;67472;51.554;7.812;2023-11-21T03:17:21;100331.97;;;9.25;100.00
78198;BME280;67472;51.554;7.812;2023-11-21T03:20:08;100336.50;;;9.23;100.00
78198;BME280;67472;51.554;7.812;2023-11-21T03:22:55;100336.84;;;9.30;100.00
78198;BME280;67472;51.554;7.812;2023-11-21T03:25:42;100333.97;;;9.33;100.00
78198;BME280;67472;51.554;7.812;2023-11-21T03:28:28;100343.28;;;9.37;100.00
78198;BME280;67472;51.554;7.812;2023-11-21T03:31:16;100340.25;;;9.41;100.00
78198;BME280;67472;51.554;7.812;2023-11-21T03:34:03;100352.34;;;9.44;100.00
78198;BME280;67472;51.554;7.812;2023-11-21T03:36:50;100348.88;;;9.43;100.00
78198;BME280;67472;51.554;7.812;2023-11-21T03:39:37;100354.72;;;9.47;100.00
78198;BME280;67472;51.554;7.812;2023-11-21T03:42:23;100350.75;;;9.52;100.00
78198;BME280;67472;51.554;7.812;2023-11-21T03:45:10;100357.44;;;9.56;100.00
78198;BME280;67472;51.554;7.812;2023-11-21T03:47:58;100359.69;;;9.61;100.00
78198;BME280;67472;51.554;7.812;2023-11-21T03:50:47;100368.63;;;9.70;100.00
78198;BME280;67472;51.554;7.812;2023-11-21T03:53:33;100363.94;;;9.73;100.00
78198;BME280;67472;51.554;7.812;2023-11-21T03:56:20;100366.81;;;9.70;100.00
78198;BME280;67472;51.554;7.812;2023-11-21T03:59:06;100369.59;;;9.69;100.00
78198;BME280;67472;51.554;7.812;2023-11-21T04:01:55;100376.53;;;9.70;100.00
78198;BME280;67472;51.554;7.812;2023-11-21T04:04:43;100383.31;;;9.62;100.00
78198;BME280;67472;51.554;7.812;2023-11-21T04:07:29;100388.59;;;9.62;100.00
78198;BME280;67472;51.554;7.812;2023-11-21T04:10:15;100392.50;;;9.68;100.00
78198;BME280;67472;51.554;7.812;2023-11-21T04:13:01;100399.13;;;9.62;100.00
78198;BME280;67472;51.554;7.812;2023-11-21T04:15:47;100395.41;;;9.65;100.00
78198;BME280;67472;51.554;7.812;2023-11-21T04:18:34;100399.22;;;9.72;100.00
78198;BME280;67472;51.554;7.812;2023-11-21T04:21:22;100401.00;;;9.72;100.00
78198;BME280;67472;51.554;7.812;2023-11-21T04:24:09;100404.00;;;9.67;100.00
78198;BME280;67472;51.554;7.812;2023-11-21T04:26:55;100407.22;;;9.71;100.00
78198;BME280;67472;51.554;7.812;2023-11-21T04:29:41;100415.53;;;9.66;100.00
78198;BME280;67472;51.554;7.812;2023-11-21T04:32:27;100420.06;;;9.64;100.00
78198;BME280;67472;51.554;7.812;2023-11-21T04:35:13;100413.59;;;9.68;100.00
78198;BME280;67472;51.554;7.812;2023-11-21T04:38:01;100415.28;;;9.69;100.00
78198;BME280;67472;51.554;7.812;2023-11-21T04:40:47;100407.41;;;9.58;100.00
78198;BME280;67472;51.554;7.812;2023-11-21T04:43:34;100410.19;;;9.56;100.00
78198;BME280;67472;51.554;7.812;2023-11-21T04:46:20;100413.72;;;9.66;100.00
78198;BME280;67472;51.554;7.812;2023-11-21T04:49:06;100418.19;;;9.55;100.00
78198;BME280;67472;51.554;7.812;2023-11-21T04:51:52;100419.38;;;9.62;100.00
78198;BME280;67472;51.554;7.812;2023-11-21T04:54:39;100418.03;;;9.68;100.00
78198;BME280;67472;51.554;7.812;2023-11-21T04:57:26;100416.34;;;9.66;100.00
78198;BME280;67472;51.554;7.812;2023-11-21T05:00:13;100421.84;;;9.75;100.00
78198;BME280;67472;51.554;7.812;2023-11-21T05:03:00;100419.13;;;9.65;100.00
78198;BME280;67472;51.554;7.812;2023-11-21T05:05:46;100421.50;;;9.68;100.00
78198;BME280;67472;51.554;7.812;2023-11-21T05:08:32;100427.22;;;9.73;100.00
78198;BME280;67472;51.554;7.812;2023-11-21T05:11:25;100420.56;;;9.69;100.00
78198;BME280;67472;51.554;7.812;2023-11-21T05:14:11;100423.69;;;9.63;100.00
78198;BME280;67472;51.554;7.812;2023-11-21T05:16:58;100426.53;;;9.71;100.00
78198;BME280;67472;51.554;7.812;2023-11-21T05:19:44;100427.03;;;9.65;100.00
78198;BME280;67472;51.554;7.812;2023-11-21T05:22:32;100426.53;;;9.71;100.00
78198;BME280;67472;51.554;7.812;2023-11-21T05:25:19;100429.03;;;9.73;100.00
78198;BME280;67472;51.554;7.812;2023-11-21T05:28:06;100437.66;;;9.75;100.00
78198;BME280;67472;51.554;7.812;2023-11-21T05:30:52;100438.44;;;9.65;100.00
78198;BME280;67472;51.554;7.812;2023-11-21T05:33:40;100442.94;;;9.75;100.00
78198;BME280;67472;51.554;7.812;2023-11-21T05:36:26;100444.16;;;9.71;100.00
78198;BME280;67472;51.554;7.812;2023-11-21T05:39:13;100448.34;;;9.73;100.00
78198;BME280;67472;51.554;7.812;2023-11-21T05:42:02;100452.22;;;9.69;100.00
78198;BME280;67472;51.554;7.812;2023-11-21T05:44:50;100455.22;;;9.64;100.00
78198;BME280;67472;51.554;7.812;2023-11-21T05:47:37;100452.72;;;9.63;100.00
78198;BME280;67472;51.554;7.812;2023-11-21T05:50:24;100457.00;;;9.64;100.00
78198;BME280;67472;51.554;7.812;2023-11-21T05:53:10;100458.28;;;9.70;100.00
78198;BME280;67472;51.554;7.812;2023-11-21T05:55:56;100469.31;;;9.75;100.00
78198;BME280;67472;51.554;7.812;2023-11-21T05:58:42;100467.78;;;9.72;100.00
78198;BME280;67472;51.554;7.812;2023-11-21T06:01:29;100483.97;;;9.68;100.00
78198;BME280;67472;51.554;7.812;2023-11-21T06:04:15;100485.84;;;9.77;100.00
78198;BME280;67472;51.554;7.812;2023-11-21T06:07:03;100489.78;;;9.82;100.00
78198;BME280;67472;51.554;7.812;2023-11-21T06:09:49;100487.84;;;9.84;100.00
78198;BME280;67472;51.554;7.812;2023-11-21T06:12:35;100496.25;;;9.78;100.00
78198;BME280;67472;51.554;7.812;2023-11-21T06:15:22;100500.97;;;9.75;100.00
78198;BME280;67472;51.554;7.812;2023-11-21T06:18:10;100508.88;;;9.75;100.00
78198;BME280;67472;51.554;7.812;2023-11-21T06:20:57;100515.75;;;9.66;100.00
78198;BME280;67472;51.554;7.812;2023-11-21T06:23:43;100518.59;;;9.74;100.00
78198;BME280;67472;51.554;7.812;2023-11-21T06:26:29;100523.16;;;9.72;100.00
78198;BME280;67472;51.554;7.812;2023-11-21T06:29:16;100519.78;;;9.70;100.00
78198;BME280;67472;51.554;7.812;2023-11-21T06:32:03;100524.00;;;9.61;100.00
78198;BME280;67472;51.554;7.812;2023-11-21T06:34:51;100525.91;;;9.71;100.00
78198;BME280;67472;51.554;7.812;2023-11-21T06:37:39;100533.38;;;9.65;100.00
78198;BME280;67472;51.554;7.812;2023-11-21T06:40:25;100535.66;;;9.59;100.00
78198;BME280;67472;51.554;7.812;2023-11-21T06:43:11;100537.66;;;9.66;100.00
78198;BME280;67472;51.554;7.812;2023-11-21T06:45:59;100547.09;;;9.80;100.00
78198;BME280;67472;51.554;7.812;2023-11-21T06:48:45;100545.63;;;9.87;100.00
78198;BME280;67472;51.554;7.812;2023-11-21T06:51:32;100541.28;;;9.97;100.00
78198;BME280;67472;51.554;7.812;2023-11-21T06:54:18;100547.16;;;9.90;100.00
78198;BME280;67472;51.554;7.812;2023-11-21T06:57:05;100544.53;;;9.90;100.00
78198;BME280;67472;51.554;7.812;2023-11-21T06:59:52;100554.03;;;9.92;100.00
78198;BME280;67472;51.554;7.812;2023-11-21T07:02:38;100555.06;;;10.01;100.00
78198;BME280;67472;51.554;7.812;2023-11-21T07:05:24;100556.53;;;9.94;100.00
78198;BME280;67472;51.554;7.812;2023-11-21T07:08:12;100559.31;;;9.92;100.00
78198;BME280;67472;51.554;7.812;2023-11-21T07:11:08;100561.81;;;9.94;100.00
78198;BME280;67472;51.554;7.812;2023-11-21T07:13:54;100574.28;;;9.92;100.00
78198;BME280;67472;51.554;7.812;2023-11-21T07:16:41;100577.41;;;9.86;100.00
78198;BME280;67472;51.554;7.812;2023-11-21T07:19:27;100580.06;;;9.86;100.00
78198;BME280;67472;51.554;7.812;2023-11-21T07:22:13;100583.31;;;9.78;100.00
78198;BME280;67472;51.554;7.812;2023-11-21T07:25:01;100592.66;;;9.82;100.00
78198;BME280;67472;51.554;7.812;2023-11-21T07:27:47;100592.06;;;9.79;100.00
78198;BME280;67472;51.554;7.812;2023-11-21T07:30:34;100595.06;;;9.74;100.00
78198;BME280;67472;51.554;7.812;2023-11-21T07:33:20;100611.25;;;9.81;100.00
78198;BME280;67472;51.554;7.812;2023-11-21T07:36:08;100611.81;;;9.84;100.00
78198;BME280;67472;51.554;7.812;2023-11-21T07:38:55;100618.31;;;9.80;100.00
78198;BME280;67472;51.554;7.812;2023-11-21T07:41:42;100624.19;;;9.84;100.00
78198;BME280;67472;51.554;7.812;2023-11-21T07:44:33;100631.97;;;9.85;100.00
78198;BME280;67472;51.554;7.812;2023-11-21T07:47:19;100623.94;;;9.87;100.00
78198;BME280;67472;51.554;7.812;2023-11-21T07:50:06;100624.72;;;9.98;100.00
78198;BME280;67472;51.554;7.812;2023-11-21T07:52:53;100632.16;;;10.04;100.00
78198;BME280;67472;51.554;7.812;2023-11-21T07:55:40;100630.59;;;10.13;100.00
78198;BME280;67472;51.554;7.812;2023-11-21T07:58:28;100628.41;;;10.29;100.00
78198;BME280;67472;51.554;7.812;2023-11-21T08:01:14;100628.16;;;10.32;100.00
78198;BME280;67472;51.554;7.812;2023-11-21T08:04:00;100625.63;;;10.31;100.00
78198;BME280;67472;51.554;7.812;2023-11-21T08:06:48;100622.97;;;10.31;100.00
78198;BME280;67472;51.554;7.812;2023-11-21T08:09:34;100622.28;;;10.29;100.00
78198;BME280;67472;51.554;7.812;2023-11-21T08:12:20;100627.75;;;10.37;100.00
78198;BME280;67472;51.554;7.812;2023-11-21T08:15:09;100638.22;;;10.38;100.00
78198;BME280;67472;51.554;7.812;2023-11-21T08:17:55;100633.34;;;10.23;100.00
78198;BME280;67472;51.554;7.812;2023-11-21T08:20:41;100644.28;;;10.18;100.00
78198;BME280;67472;51.554;7.812;2023-11-21T08:23:27;100650.00;;;10.23;100.00
78198;BME280;67472;51.554;7.812;2023-11-21T08:26:16;100658.22;;;10.41;100.00
78198;BME280;67472;51.554;7.812;2023-11-21T08:29:03;100656.28;;;10.43;100.00
78198;BME280;67472;51.554;7.812;2023-11-21T08:31:53;100672.63;;;10.37;100.00
78198;BME280;67472;51.554;7.812;2023-11-21T08:34:39;100669.44;;;10.33;100.00
78198;BME280;67472;51.554;7.812;2023-11-21T08:37:27;100666.34;;;10.17;100.00
78198;BME280;67472;51.554;7.812;2023-11-21T08:40:14;100673.94;;;10.42;100.00
78198;BME280;67472;51.554;7.812;2023-11-21T08:43:02;100670.72;;;10.39;100.00
78198;BME280;67472;51.554;7.812;2023-11-21T08:45:49;100675.63;;;10.43;100.00
78198;BME280;67472;51.554;7.812;2023-11-21T08:48:37;100682.91;;;10.51;100.00
78198;BME280;67472;51.554;7.812;2023-11-21T08:51:23;100685.63;;;10.60;100.00
78198;BME280;67472;51.554;7.812;2023-11-21T08:54:10;100686.38;;;10.51;100.00
78198;BME280;67472;51.554;7.812;2023-11-21T08:56:56;100693.69;;;10.59;100.00
78198;BME280;67472;51.554;7.812;2023-11-21T08:59:43;100700.88;;;10.57;100.00
78198;BME280;67472;51.554;7.812;2023-11-21T09:02:28;100703.66;;;10.55;100.00
78198;BME280;67472;51.554;7.812;2023-11-21T09:05:16;100707.75;;;10.48;100.00
78198;BME280;67472;51.554;7.812;2023-11-21T09:08:04;100711.84;;;10.52;100.00
78198;BME280;67472;51.554;7.812;2023-11-21T09:10:50;100714.81;;;10.59;100.00
78198;BME280;67472;51.554;7.812;2023-11-21T09:13:36;100701.63;;;10.48;100.00
78198;BME280;67472;51.554;7.812;2023-11-21T09:16:22;100709.78;;;10.56;100.00
78198;BME280;67472;51.554;7.812;2023-11-21T09:19:08;100707.50;;;10.51;100.00
78198;BME280;67472;51.554;7.812;2023-11-21T09:21:55;100709.94;;;10.43;100.00
78198;BME280;67472;51.554;7.812;2023-11-21T09:24:42;100708.75;;;10.47;100.00
78198;BME280;67472;51.554;7.812;2023-11-21T09:27:28;100718.31;;;10.48;100.00
78198;BME280;67472;51.554;7.812;2023-11-21T09:30:14;100719.47;;;10.66;100.00
78198;BME280;67472;51.554;7.812;2023-11-21T09:33:01;100725.72;;;10.65;100.00
78198;BME280;67472;51.554;7.812;2023-11-21T09:35:47;100731.63;;;10.58;100.00
78198;BME280;67472;51.554;7.812;2023-11-21T09:38:37;100727.66;;;10.63;100.00
78198;BME280;67472;51.554;7.812;2023-11-21T09:41:30;100727.66;;;10.63;100.00
78198;BME280;67472;51.554;7.812;2023-11-21T09:44:32;100740.75;;;10.54;100.00
78198;BME280;67472;51.554;7.812;2023-11-21T09:47:20;100740.19;;;10.50;100.00
78198;BME280;67472;51.554;7.812;2023-11-21T09:50:09;100748.97;;;10.40;100.00
78198;BME280;67472;51.554;7.812;2023-11-21T09:52:58;100754.69;;;10.56;100.00
78198;BME280;67472;51.554;7.812;2023-11-21T09:55:52;100750.72;;;10.61;100.00
78198;BME280;67472;51.554;7.812;2023-11-21T09:58:38;100753.97;;;10.54;100.00
78198;BME280;67472;51.554;7.812;2023-11-21T10:01:25;100753.25;;;10.52;100.00
78198;BME280;67472;51.554;7.812;2023-11-21T10:04:13;100761.06;;;10.53;100.00
78198;BME280;67472;51.554;7.812;2023-11-21T10:07:01;100754.69;;;10.56;100.00
78198;BME280;67472;51.554;7.812;2023-11-21T10:09:51;100756.16;;;10.49;100.00
78198;BME280;67472;51.554;7.812;2023-11-21T10:12:38;100752.66;;;10.48;100.00
78198;BME280;67472;51.554;7.812;2023-11-21T10:15:27;100759.75;;;10.48;100.00
78198;BME280;67472;51.554;7.812;2023-11-21T10:18:14;100759.97;;;10.56;100.00
78198;BME280;67472;51.554;7.812;2023-11-21T10:21:01;100769.44;;;10.58;100.00
78198;BME280;67472;51.554;7.812;2023-11-21T10:23:50;100784.56;;;10.67;100.00
78198;BME280;67472;51.554;7.812;2023-11-21T10:26:38;100778.97;;;10.50;100.00
78198;BME280;67472;51.554;7.812;2023-11-21T10:29:28;100784.25;;;10.50;100.00
78198;BME280;67472;51.554;7.812;2023-11-21T10:32:14;100781.84;;;10.47;100.00
78198;BME280;67472;51.554;7.812;2023-11-21T10:35:00;100790.94;;;10.54;100.00
78198;BME280;67472;51.554;7.812;2023-11-21T10:38:00;100785.53;;;10.55;100.00
78198;BME280;67472;51.554;7.812;2023-11-21T10:40:46;100787.16;;;10.36;100.00
78198;BME280;67472;51.554;7.812;2023-11-21T10:43:34;100793.00;;;10.39;100.00
78198;BME280;67472;51.554;7.812;2023-11-21T10:46:21;100795.41;;;10.42;100.00
78198;BME280;67472;51.554;7.812;2023-11-21T10:49:09;100799.63;;;10.34;100.00
78198;BME280;67472;51.554;7.812;2023-11-21T10:51:56;100802.50;;;10.42;100.00
78198;BME280;67472;51.554;7.812;2023-11-21T10:54:43;100806.56;;;10.46;100.00
78198;BME280;67472;51.554;7.812;2023-11-21T10:57:30;100813.53;;;10.47;100.00
78198;BME280;67472;51.554;7.812;2023-11-21T11:00:17;100820.59;;;10.57;100.00
78198;BME280;67472;51.554;7.812;2023-11-21T11:03:07;100823.84;;;10.50;100.00
78198;BME280;67472;51.554;7.812;2023-11-21T11:05:58;100829.34;;;10.58;100.00
78198;BME280;67472;51.554;7.812;2023-11-21T11:08:46;100831.88;;;10.48;100.00
78198;BME280;67472;51.554;7.812;2023-11-21T11:11:33;100845.94;;;10.49;100.00
78198;BME280;67472;51.554;7.812;2023-11-21T11:14:24;100845.59;;;10.53;100.00
78198;BME280;67472;51.554;7.812;2023-11-21T11:17:13;100842.00;;;10.32;100.00
78198;BME280;67472;51.554;7.812;2023-11-21T11:20:01;100847.78;;;10.15;100.00
78198;BME280;67472;51.554;7.812;2023-11-21T11:23:04;100859.63;;;10.09;100.00
78198;BME280;67472;51.554;7.812;2023-11-21T11:26:07;100862.00;;;10.12;100.00
78198;BME280;67472;51.554;7.812;2023-11-21T11:29:03;100868.34;;;9.99;100.00
78198;BME280;67472;51.554;7.812;2023-11-21T11:32:03;100862.00;;;10.12;100.00
78198;BME280;67472;51.554;7.812;2023-11-21T11:34:59;100870.75;;;10.02;100.00
78198;BME280;67472;51.554;7.812;2023-11-21T11:37:49;100868.25;;;10.11;100.00
78198;BME280;67472;51.554;7.812;2023-11-21T11:40:39;100879.88;;;10.09;100.00
78198;BME280;67472;51.554;7.812;2023-11-21T11:43:26;100877.94;;;10.00;100.00
78198;BME280;67472;51.554;7.812;2023-11-21T11:46:12;100881.53;;;9.88;100.00
78198;BME280;67472;51.554;7.812;2023-11-21T11:49:02;100875.44;;;10.09;100.00
78198;BME280;67472;51.554;7.812;2023-11-21T11:52:32;100884.13;;;10.23;100.00
78198;BME280;67472;51.554;7.812;2023-11-21T11:55:21;100885.88;;;10.11;100.00
78198;BME280;67472;51.554;7.812;2023-11-21T11:58:08;100881.44;;;10.11;100.00
78198;BME280;67472;51.554;7.812;2023-11-21T12:00:54;100892.16;;;10.32;100.00
78198;BME280;67472;51.554;7.812;2023-11-21T12:03:43;100896.22;;;10.14;100.00
78198;BME280;67472;51.554;7.812;2023-11-21T12:06:33;100894.53;;;10.13;100.00
78198;BME280;67472;51.554;7.812;2023-11-21T12:09:20;100910.28;;;10.26;100.00
78198;BME280;67472;51.554;7.812;2023-11-21T12:12:09;100912.91;;;10.26;100.00
78198;BME280;67472;51.554;7.812;2023-11-21T12:14:55;100911.25;;;9.90;100.00
78198;BME280;67472;51.554;7.812;2023-11-21T12:17:43;100915.34;;;9.94;100.00
78198;BME280;67472;51.554;7.812;2023-11-21T12:20:31;100930.22;;;9.84;100.00
78198;BME280;67472;51.554;7.812;2023-11-21T12:23:17;100935.44;;;9.73;100.00
78198;BME280;67472;51.554;7.812;2023-11-21T12:26:03;100939.91;;;9.72;100.00
78198;BME280;67472;51.554;7.812;2023-11-21T12:28:53;100943.41;;;9.84;100.00
78198;BME280;67472;51.554;7.812;2023-11-21T12:31:40;100937.81;;;9.64;100.00
78198;BME280;67472;51.554;7.812;2023-11-21T12:34:26;100947.28;;;9.67;100.00
78198;BME280;67472;51.554;7.812;2023-11-21T12:37:12;100959.97;;;9.86;100.00
78198;BME280;67472;51.554;7.812;2023-11-21T12:39:59;100960.03;;;9.73;100.00
78198;BME280;67472;51.554;7.812;2023-11-21T12:42:46;100956.41;;;9.63;100.00
78198;BME280;67472;51.554;7.812;2023-11-21T12:45:34;100961.72;;;9.74;100.00
78198;BME280;67472;51.554;7.812;2023-11-21T12:48:23;100968.34;;;9.56;100.00
78198;BME280;67472;51.554;7.812;2023-11-21T12:51:09;100963.56;;;9.61;100.00
78198;BME280;67472;51.554;7.812;2023-11-21T12:53:56;100961.16;;;9.58;100.00
78198;BME280;67472;51.554;7.812;2023-11-21T12:56:45;100969.41;;;9.77;100.00
78198;BME280;67472;51.554;7.812;2023-11-21T12:59:33;100963.22;;;9.54;100.00
78198;BME280;67472;51.554;7.812;2023-11-21T13:02:21;100971.03;;;9.67;100.00
78198;BME280;67472;51.554;7.812;2023-11-21T13:05:09;100968.75;;;9.62;100.00
78198;BME280;67472;51.554;7.812;2023-11-21T13:08:07;100981.47;;;9.69;100.00
78198;BME280;67472;51.554;7.812;2023-11-21T13:10:56;100984.44;;;9.64;100.00
78198;BME280;67472;51.554;7.812;2023-11-21T13:13:43;100988.78;;;9.65;100.00
78198;BME280;67472;51.554;7.812;2023-11-21T13:16:29;100995.16;;;9.50;100.00
78198;BME280;67472;51.554;7.812;2023-11-21T13:19:18;101006.50;;;9.63;100.00
78198;BME280;67472;51.554;7.812;2023-11-21T13:22:06;101006.50;;;9.63;100.00
78198;BME280;67472;51.554;7.812;2023-11-21T13:24:55;101014.50;;;9.38;100.00
78198;BME280;67472;51.554;7.812;2023-11-21T13:27:42;101022.75;;;9.33;100.00
78198;BME280;67472;51.554;7.812;2023-11-21T13:30:30;101031.41;;;9.35;100.00
78198;BME280;67472;51.554;7.812;2023-11-21T13:33:18;101028.13;;;9.32;100.00
78198;BME280;67472;51.554;7.812;2023-11-21T13:36:08;101039.50;;;9.45;100.00
78198;BME280;67472;51.554;7.812;2023-11-21T13:38:55;101044.03;;;9.43;100.00
78198;BME280;67472;51.554;7.812;2023-11-21T13:41:44;101049.09;;;9.46;100.00
78198;BME280;67472;51.554;7.812;2023-11-21T13:44:33;101048.25;;;9.45;100.00
78198;BME280;67472;51.554;7.812;2023-11-21T13:47:22;101042.84;;;9.47;100.00
78198;BME280;67472;51.554;7.812;2023-11-21T13:50:14;101051.06;;;9.19;100.00
78198;BME280;67472;51.554;7.812;2023-11-21T13:53:08;101055.47;;;9.31;100.00
78198;BME280;67472;51.554;7.812;2023-11-21T13:56:03;101060.34;;;9.12;100.00
78198;BME280;67472;51.554;7.812;2023-11-21T13:58:49;101065.09;;;9.19;100.00
78198;BME280;67472;51.554;7.812;2023-11-21T14:01:36;101077.50;;;9.17;100.00
78198;BME280;67472;51.554;7.812;2023-11-21T14:04:38;101076.78;;;9.28;100.00
78198;BME280;67472;51.554;7.812;2023-11-21T14:07:38;101081.63;;;9.08;100.00
78198;BME280;67472;51.554;7.812;2023-11-21T14:10:25;101097.06;;;9.02;100.00
78198;BME280;67472;51.554;7.812;2023-11-21T14:13:12;101091.88;;;9.00;100.00
78198;BME280;67472;51.554;7.812;2023-11-21T14:16:00;101088.94;;;8.92;100.00
78198;BME280;67472;51.554;7.812;2023-11-21T14:18:47;101093.78;;;8.98;100.00
78198;BME280;67472;51.554;7.812;2023-11-21T14:21:40;101090.28;;;8.98;100.00
78198;BME280;67472;51.554;7.812;2023-11-21T14:24:28;101091.91;;;8.88;100.00
78198;BME280;67472;51.554;7.812;2023-11-21T14:27:16;101099.59;;;8.91;100.00
78198;BME280;67472;51.554;7.812;2023-11-21T14:30:03;101098.31;;;8.84;100.00
78198;BME280;67472;51.554;7.812;2023-11-21T14:32:49;101095.56;;;8.98;100.00
78198;BME280;67472;51.554;7.812;2023-11-21T14:35:35;101087.88;;;8.95;100.00